YPPH/PER METAR and TAF weather

Enter ICAO airport designator
Station Type Date Time Source
YPPH METAR 2020/04/04 11:00 UTC NOAA

YPPH 041100Z 15004KT 9999 -RA NSC 20/12 Q1017 NOSIG


Station Type Date Time Source
YPPH Decoded METAR 2020/04/04 11:00 UTC NOAA

Belmont Perth Airport , Australia (YPPH) 31-56S 115-57E 29M
Apr 04, 2020 - 07:00 AM EDT / 2020.04.04 1100 UTC
Wind: from the SSE (150 degrees) at 5 MPH (4 KT):0
Visibility: greater than 7 mile(s):0
Weather: light rain
Temperature: 68 F (20 C)
Dew Point: 53 F (12 C)
Relative Humidity: 59%
Pressure (altimeter): 30.03 in. Hg (1017 hPa)
ob: YPPH 041100Z 15004KT 9999 -RA NSC 20/12 Q1017 NOSIG
cycle: 11

Station Type Date Time Source
YPPH TAF 2020/04/04 12:33 UTC NOAA

TAF YPPH 041105Z 0412/0518 08010KT 9999 -SHRA NSC
FM041500 07014G24KT 9999 -SHRA NSC
FM050300 05012KT 9999 -SHRA NSC
FM051200 08009KT 9999 -SHRA FEW050

Example: see airport list